Terminal Aerodrome Forecast
Issued by NWS Pueblo, CO

Home | Current Version | Previous Version | Text Only | Print | Product List | Glossary On
Versions: 1 2 3 4 5 6 7 8 9 10 11 12 13 14 15 16 17 18 19 20 21 22 23 24 25 26 27 28 29 30 31 32 33 34 35 36 37 38 39 40 41 42 43 44
000
FTUS45 KPUB 240534
TAFPUB
TAF
KPUB 240534Z 2406/2506 36014KT P6SM FEW150
     FM241000 VRB05KT P6SM SCT010
     FM241500 15007KT P6SM SCT250
     FM242000 19012G22KT P6SM FEW150 SCT250
     FM242200 21015G25KT P6SM SCT150 SCT250
     FM250200 26012KT P6SM SCT150 SCT250=

USA.gov is the U.S. government's official web portal to all federal, state and local government web resources and services.